Time;durP1;ratioP1;P1;durP2;ratioP2;P2;SDS_P1;SDS_P2;PMS_P1;PMS_P2;Temp;Humidity;BMP_temperature;BMP_pressure;BME280_temperature;BME280_humidity;BME280_pressure;Samples;Min_cycle;Max_cycle;Signal;HPM_P1;HPM_P2
2022/06/07 00:00:30;;;;;;;5.05;4.65;;;13.90;99.90;;;;;;5046439;28;37993;-74
2022/06/07 00:02:57;;;;;;;5.57;5.07;;;13.90;99.90;;;;;;5061228;28;38927;-74
2022/06/07 00:05:24;;;;;;;5.15;4.75;;;13.90;99.90;;;;;;5058071;28;39033;-74
2022/06/07 00:07:50;;;;;;;7.13;5.35;;;13.90;99.90;;;;;;5081564;27;37468;-75
2022/06/07 00:10:16;;;;;;;6.28;5.00;;;13.90;99.90;;;;;;5082937;27;38106;-74
2022/06/07 00:12:42;;;;;;;7.60;6.03;;;13.90;99.90;;;;;;5058957;28;39488;-74
2022/06/07 00:15:09;;;;;;;7.18;6.05;;;13.90;99.90;;;;;;5069362;27;38028;-74
2022/06/07 00:17:35;;;;;;;6.97;6.03;;;13.90;99.90;;;;;;5079792;27;38156;-74
2022/06/07 00:20:03;;;;;;;8.43;5.85;;;13.90;99.90;;;;;;5074461;27;38115;-74
2022/06/07 00:22:29;;;;;;;8.80;6.30;;;13.90;99.90;;;;;;5064990;27;48907;-75
2022/06/07 00:24:55;;;;;;;7.40;6.70;;;14.00;99.90;;;;;;5058319;28;39351;-75
2022/06/07 00:27:21;;;;;;;8.50;6.75;;;13.90;99.90;;;;;;5078276;27;38252;-74
2022/06/07 00:29:47;;;;;;;9.00;7.25;;;13.90;99.90;;;;;;5069708;27;36635;-75
2022/06/07 00:32:17;;;;;;;9.88;7.15;;;13.90;99.90;;;;;;5076737;27;38893;-75
2022/06/07 00:34:44;;;;;;;7.35;6.65;;;13.90;99.90;;;;;;5068995;27;39206;-74
2022/06/07 00:37:10;;;;;;;8.02;6.63;;;14.00;99.90;;;;;;5076733;27;38713;-74
2022/06/07 00:39:36;;;;;;;7.35;6.65;;;14.00;99.90;;;;;;5070513;27;37126;-74
2022/06/07 00:42:02;;;;;;;8.10;7.30;;;14.00;99.90;;;;;;5078260;27;40337;-74
2022/06/07 00:44:31;;;;;;;9.57;7.07;;;14.00;99.90;;;;;;5056222;28;39294;-74
2022/06/07 00:47:20;;;;;;;8.48;7.47;;;14.00;99.90;;;;;;5070557;28;39287;-74
2022/06/07 00:49:53;;;;;;;9.20;7.43;;;14.00;99.90;;;;;;5071921;28;46896;-74
2022/06/07 00:52:22;;;;;;;9.50;8.30;;;14.00;99.90;;;;;;5063758;27;41071;-74
2022/06/07 00:54:49;;;;;;;9.82;8.23;;;14.00;99.90;;;;;;5055438;28;39333;-74
2022/06/07 00:57:15;;;;;;;9.77;8.27;;;14.00;99.90;;;;;;5059301;28;38645;-74
2022/06/07 00:59:41;;;;;;;10.07;8.68;;;14.00;99.90;;;;;;5058832;28;39017;-74
2022/06/07 01:02:07;;;;;;;11.63;8.80;;;14.00;99.90;;;;;;5058831;28;39448;-74
2022/06/07 01:04:34;;;;;;;11.07;8.70;;;14.00;99.90;;;;;;5064909;27;38522;-74
2022/06/07 01:12:32;;;;;;;11.98;9.98;;;14.10;99.90;;;;;;5074667;27;49138;-74
2022/06/07 01:14:59;;;;;;;10.52;9.43;;;14.10;99.90;;;;;;5068713;27;37399;-73
2022/06/07 01:17:25;;;;;;;9.25;8.27;;;14.10;99.90;;;;;;5080964;27;37672;-74
2022/06/07 01:19:51;;;;;;;9.85;8.88;;;14.10;99.90;;;;;;5070387;27;37224;-74
2022/06/07 01:22:18;;;;;;;10.25;9.05;;;14.10;99.90;;;;;;5052412;27;39335;-74
2022/06/07 01:24:44;;;;;;;9.50;8.43;;;14.10;99.90;;;;;;5055791;28;38117;-74
2022/06/07 01:27:11;;;;;;;11.48;9.23;;;14.10;99.90;;;;;;5056403;27;38986;-74
2022/06/07 01:29:39;;;;;;;11.77;8.32;;;14.10;99.90;;;;;;5052884;28;38828;-74
2022/06/07 01:32:06;;;;;;;9.55;8.15;;;14.10;99.90;;;;;;5057509;28;40897;-74
2022/06/07 01:34:32;;;;;;;12.50;9.27;;;14.10;99.90;;;;;;5069770;27;38970;-74
2022/06/07 01:37:00;;;;;;;9.82;8.82;;;14.10;99.90;;;;;;5055871;28;38751;-74
2022/06/07 01:42:12;;;;;;;8.75;7.78;;;14.10;99.90;;;;;;5058203;27;39398;-75
2022/06/07 01:44:47;;;;;;;9.35;8.40;;;14.10;99.90;;;;;;5053546;28;38480;-74
2022/06/07 01:47:15;;;;;;;10.13;8.13;;;14.10;99.90;;;;;;5062072;27;38512;-74
2022/06/07 01:49:42;;;;;;;13.27;8.48;;;14.10;99.90;;;;;;5053923;28;38032;-74
2022/06/07 01:52:10;;;;;;;10.80;9.23;;;14.10;99.90;;;;;;5058200;27;39668;-73
2022/06/07 01:54:36;;;;;;;8.70;7.90;;;14.10;99.90;;;;;;5059189;28;39268;-74
2022/06/07 01:57:05;;;;;;;9.88;8.40;;;14.10;99.90;;;;;;5051703;27;39872;-74
2022/06/07 01:59:32;;;;;;;9.88;8.20;;;14.10;99.90;;;;;;5052994;28;38995;-74
2022/06/07 02:01:58;;;;;;;10.88;9.55;;;14.10;99.90;;;;;;5050613;28;36743;-74
2022/06/07 02:04:25;;;;;;;10.57;8.95;;;14.10;99.90;;;;;;5054414;28;39517;-74
2022/06/07 02:06:51;;;;;;;12.40;9.35;;;14.10;99.90;;;;;;5054335;27;38047;-74
2022/06/07 02:09:18;;;;;;;10.35;8.63;;;14.10;99.90;;;;;;5058076;27;37219;-73
2022/06/07 02:11:44;;;;;;;10.02;8.68;;;14.10;99.90;;;;;;5049346;28;39014;-74
2022/06/07 02:14:12;;;;;;;11.23;9.32;;;14.10;99.90;;;;;;5053464;27;39969;-73
2022/06/07 02:16:38;;;;;;;11.38;9.00;;;14.10;99.90;;;;;;5050266;28;38762;-74
2022/06/07 02:19:05;;;;;;;9.98;8.35;;;14.10;99.90;;;;;;5052771;27;38057;-73
2022/06/07 02:21:32;;;;;;;11.55;8.65;;;14.00;99.90;;;;;;5053047;28;40870;-74
2022/06/07 02:23:59;;;;;;;12.55;8.50;;;14.10;99.90;;;;;;5050061;27;39842;-74
2022/06/07 02:26:32;;;;;;;11.80;8.25;;;14.00;99.90;;;;;;5050685;28;38012;-74
2022/06/07 02:29:14;;;;;;;11.55;9.70;;;14.00;99.90;;;;;;5052651;27;38290;-74
2022/06/07 02:31:45;;;;;;;10.93;9.02;;;14.00;99.90;;;;;;5073643;27;47155;-74
2022/06/07 02:34:14;;;;;;;9.60;8.55;;;14.00;99.90;;;;;;5050150;27;40957;-74
2022/06/07 02:36:40;;;;;;;9.70;7.95;;;14.00;99.90;;;;;;5065874;27;39623;-74
2022/06/07 02:39:06;;;;;;;9.70;7.65;;;14.00;99.90;;;;;;5074561;27;37955;-74
2022/06/07 02:41:34;;;;;;;12.57;8.07;;;13.90;99.90;;;;;;5054468;28;40655;-74
2022/06/07 02:44:01;;;;;;;8.68;7.72;;;13.90;99.90;;;;;;5053462;27;38832;-74
2022/06/07 02:46:27;;;;;;;9.98;6.95;;;13.90;99.90;;;;;;5074988;27;48455;-74
2022/06/07 02:48:53;;;;;;;10.18;8.45;;;13.90;99.90;;;;;;5081323;27;38178;-74
2022/06/07 02:51:20;;;;;;;9.00;7.85;;;13.90;99.90;;;;;;5053912;28;38367;-74
2022/06/07 02:53:46;;;;;;;9.23;7.32;;;13.90;99.90;;;;;;5059722;27;38662;-74
2022/06/07 02:56:12;;;;;;;9.15;7.32;;;13.90;99.90;;;;;;5058928;28;37709;-75
2022/06/07 02:58:38;;;;;;;8.18;7.22;;;14.00;99.90;;;;;;5078282;27;37500;-73
2022/06/07 03:01:04;;;;;;;11.23;7.80;;;13.90;99.90;;;;;;5078717;27;40097;-74
2022/06/07 03:03:30;;;;;;;7.72;7.03;;;14.00;99.90;;;;;;5077696;27;39003;-74
2022/06/07 03:05:56;;;;;;;8.15;7.28;;;14.00;99.90;;;;;;5082242;27;40076;-74
2022/06/07 03:08:24;;;;;;;6.93;6.18;;;13.90;99.90;;;;;;5064181;27;37136;-74
2022/06/07 03:10:50;;;;;;;8.25;6.60;;;13.90;99.90;;;;;;5079177;27;43227;-74
2022/06/07 03:13:18;;;;;;;8.75;7.00;;;13.90;99.90;;;;;;5065974;27;39399;-75
2022/06/07 03:15:45;;;;;;;8.90;6.93;;;13.90;99.90;;;;;;5065365;27;38156;-74
2022/06/07 03:18:11;;;;;;;8.77;6.82;;;13.90;99.90;;;;;;5076646;27;39337;-74
2022/06/07 03:20:37;;;;;;;11.48;7.68;;;14.00;99.90;;;;;;5067571;28;39402;-74
2022/06/07 03:23:04;;;;;;;10.25;7.45;;;13.90;99.90;;;;;;5063948;27;39422;-74
2022/06/07 03:25:30;;;;;;;9.13;7.72;;;13.90;99.90;;;;;;5079922;27;39337;-74
2022/06/07 03:27:56;;;;;;;10.35;8.23;;;13.90;99.90;;;;;;5074889;27;38065;-74
2022/06/07 03:30:22;;;;;;;8.18;7.38;;;13.90;99.90;;;;;;5055435;27;36998;-74
2022/06/07 03:32:48;;;;;;;10.40;8.98;;;13.90;99.90;;;;;;5067563;27;38922;-74
2022/06/07 03:35:15;;;;;;;9.73;8.45;;;13.90;99.90;;;;;;5064262;27;38551;-73
2022/06/07 03:37:42;;;;;;;10.82;9.20;;;13.90;99.90;;;;;;5079383;27;37092;-74
2022/06/07 03:40:11;;;;;;;13.88;8.20;;;13.90;99.90;;;;;;5079284;27;39491;-74
2022/06/07 03:42:37;;;;;;;11.50;8.55;;;13.90;99.90;;;;;;5079779;27;38744;-74
2022/06/07 03:45:04;;;;;;;10.43;8.45;;;13.90;99.90;;;;;;5071307;27;38984;-74
2022/06/07 03:47:31;;;;;;;9.18;8.20;;;14.00;99.90;;;;;;5055391;28;38778;-74
2022/06/07 03:49:57;;;;;;;11.25;9.02;;;14.00;99.90;;;;;;5056227;28;39539;-74
2022/06/07 03:52:23;;;;;;;9.77;8.77;;;14.00;99.90;;;;;;5057760;28;39116;-74
2022/06/07 03:54:49;;;;;;;10.13;8.43;;;14.00;99.90;;;;;;5053143;28;38637;-74
2022/06/07 03:57:16;;;;;;;9.40;8.38;;;13.90;99.90;;;;;;5079397;27;36907;-74
2022/06/07 03:59:43;;;;;;;9.50;7.68;;;13.90;99.90;;;;;;5072481;27;39077;-75
2022/06/07 04:02:09;;;;;;;12.40;8.85;;;13.90;99.90;;;;;;5060245;28;39169;-75
2022/06/07 04:04:36;;;;;;;10.32;9.00;;;13.90;99.90;;;;;;5077697;27;38512;-74
2022/06/07 04:09:50;;;;;;;9.43;7.70;;;14.00;99.90;;;;;;5078649;27;39522;-74
2022/06/07 04:12:17;;;;;;;9.48;7.80;;;14.00;99.90;;;;;;5070812;27;39873;-74
2022/06/07 04:14:44;;;;;;;10.45;8.43;;;13.90;99.90;;;;;;5076231;27;39017;-74
2022/06/07 04:17:12;;;;;;;10.38;7.93;;;13.90;99.90;;;;;;5059844;27;37032;-74
2022/06/07 04:19:40;;;;;;;8.30;7.25;;;13.90;99.90;;;;;;5076350;27;38486;-74
2022/06/07 04:22:06;;;;;;;8.75;7.38;;;13.90;99.90;;;;;;5084357;27;38162;-73
2022/06/07 04:24:33;;;;;;;11.90;7.78;;;14.00;99.90;;;;;;5082122;27;38608;-74
2022/06/07 04:26:59;;;;;;;9.18;7.57;;;14.00;99.90;;;;;;5059531;28;38994;-75
2022/06/07 04:29:25;;;;;;;9.00;7.15;;;14.00;99.90;;;;;;5062759;27;39496;-74
2022/06/07 04:31:51;;;;;;;7.72;6.93;;;14.00;99.90;;;;;;5066353;27;38565;-74
2022/06/07 04:34:18;;;;;;;8.90;6.82;;;14.00;99.90;;;;;;5054702;28;38125;-74
2022/06/07 04:36:45;;;;;;;7.18;6.40;;;14.00;99.90;;;;;;5071233;27;37904;-74
2022/06/07 04:39:12;;;;;;;7.32;6.40;;;14.00;99.90;;;;;;5068016;27;40086;-74
2022/06/07 04:41:39;;;;;;;7.75;6.88;;;14.00;99.90;;;;;;5059646;28;39888;-74
2022/06/07 04:44:06;;;;;;;8.25;6.30;;;14.10;99.90;;;;;;5076825;27;37819;-74
2022/06/07 04:46:33;;;;;;;7.78;6.90;;;14.10;99.90;;;;;;5065291;27;20103;-74
2022/06/07 04:49:00;;;;;;;8.90;6.07;;;14.10;99.90;;;;;;5074170;27;40369;-74
2022/06/07 04:51:28;;;;;;;8.23;6.32;;;14.10;99.90;;;;;;5073810;27;38371;-75
2022/06/07 04:53:56;;;;;;;9.60;6.65;;;14.20;99.90;;;;;;5078397;27;38860;-74
2022/06/07 04:56:33;;;;;;;7.60;6.60;;;14.20;99.90;;;;;;5099555;27;38731;-74
2022/06/07 04:59:02;;;;;;;8.93;6.72;;;14.20;99.90;;;;;;5053674;27;38854;-74
2022/06/07 05:01:33;;;;;;;7.40;6.28;;;14.20;99.90;;;;;;5071618;27;48548;-74
2022/06/07 05:03:59;;;;;;;9.52;6.53;;;14.20;99.90;;;;;;5069880;27;37676;-75
2022/06/07 05:06:31;;;;;;;7.90;6.18;;;14.30;99.90;;;;;;5094955;27;38220;-75
2022/06/07 05:08:59;;;;;;;;;;;14.30;99.90;;;;;;5058279;28;40935;-74
2022/06/07 05:11:26;;;;;;;6.57;5.85;;;14.40;99.90;;;;;;5083756;27;40402;-74
2022/06/07 05:13:54;;;;;;;7.57;6.40;;;14.40;99.90;;;;;;5070064;27;40253;-75
2022/06/07 05:16:21;;;;;;;7.22;5.70;;;14.40;99.90;;;;;;5064697;27;37682;-74
2022/06/07 05:18:49;;;;;;;6.90;5.75;;;14.40;99.90;;;;;;5071721;28;38996;-74
2022/06/07 05:21:16;;;;;;;7.60;5.97;;;14.50;99.90;;;;;;5075246;27;40255;-74
2022/06/07 05:23:43;;;;;;;8.18;5.78;;;14.50;99.90;;;;;;5079380;27;38193;-75
2022/06/07 05:26:13;;;;;;;8.10;6.50;;;14.60;99.90;;;;;;5064479;27;37005;-74
2022/06/07 05:28:42;;;;;;;6.85;5.70;;;14.70;99.90;;;;;;5077614;27;39443;-74
2022/06/07 05:31:08;;;;;;;5.95;5.45;;;14.70;99.90;;;;;;5076940;27;37347;-77
2022/06/07 05:33:35;;;;;;;10.02;5.90;;;14.70;99.90;;;;;;5056616;27;39085;-74
2022/06/07 05:36:03;;;;;;;7.03;6.18;;;14.80;99.90;;;;;;5058002;28;36030;-74
2022/06/07 05:38:30;;;;;;;8.23;6.93;;;14.70;99.90;;;;;;5061591;28;39595;-73
2022/06/07 05:40:56;;;;;;;6.93;6.07;;;14.80;99.90;;;;;;5077610;27;38780;-74
2022/06/07 05:43:22;;;;;;;6.90;6.05;;;14.70;99.90;;;;;;5075344;27;38779;-74
2022/06/07 05:45:50;;;;;;;9.13;6.35;;;14.70;99.90;;;;;;5061204;28;37971;-74
2022/06/07 05:48:17;;;;;;;7.63;6.00;;;14.70;99.90;;;;;;5088403;28;39168;-74
2022/06/07 05:50:44;;;;;;;7.25;5.95;;;14.80;99.90;;;;;;5053215;28;41345;-74
2022/06/07 05:53:11;;;;;;;6.75;5.70;;;14.80;99.90;;;;;;5046391;28;36935;-74
2022/06/07 05:55:37;;;;;;;8.82;5.55;;;14.80;99.90;;;;;;5056650;28;38769;-74
2022/06/07 05:58:03;;;;;;;7.78;6.43;;;14.90;99.90;;;;;;5060663;28;39775;-73
2022/06/07 06:00:30;;;;;;;9.65;5.78;;;14.90;99.90;;;;;;5056278;28;37287;-74
2022/06/07 06:02:56;;;;;;;6.82;5.50;;;14.90;99.90;;;;;;5075468;27;38355;-74
2022/06/07 06:05:22;;;;;;;6.85;5.65;;;15.00;99.90;;;;;;5072033;27;35456;-74
2022/06/07 06:10:33;;;;;;;5.15;4.63;;;15.10;99.90;;;;;;5074002;27;47789;-74
2022/06/07 06:12:59;;;;;;;6.82;5.43;;;15.10;99.90;;;;;;5060958;28;39789;-75
2022/06/07 06:15:26;;;;;;;5.97;5.18;;;15.10;99.90;;;;;;5060520;28;36157;-74
2022/06/07 06:17:52;;;;;;;7.70;5.35;;;15.20;99.90;;;;;;5061056;28;37459;-74
2022/06/07 06:20:20;;;;;;;6.50;5.20;;;15.20;99.90;;;;;;5052749;28;37432;-74
2022/06/07 06:22:46;;;;;;;7.68;5.63;;;15.30;99.90;;;;;;5066974;28;38504;-74
2022/06/07 06:25:12;;;;;;;6.47;5.68;;;15.40;99.90;;;;;;5064937;28;38252;-74
2022/06/07 06:27:38;;;;;;;5.25;4.63;;;15.30;99.90;;;;;;5060866;28;39252;-74
2022/06/07 06:30:06;;;;;;;5.75;4.90;;;15.40;99.90;;;;;;5080673;27;37259;-74
2022/06/07 06:32:32;;;;;;;8.07;6.25;;;15.50;99.90;;;;;;5083842;27;38659;-74
2022/06/07 06:34:58;;;;;;;6.07;5.25;;;15.50;99.90;;;;;;5060329;27;36415;-74
2022/06/07 06:37:27;;;;;;;13.05;6.22;;;15.60;99.90;;;;;;5063029;28;39266;-75
2022/06/07 06:39:53;;;;;;;7.75;5.63;;;15.50;99.90;;;;;;5066211;28;38850;-74
2022/06/07 06:42:20;;;;;;;6.40;5.68;;;15.40;99.90;;;;;;5060145;28;37222;-73
2022/06/07 06:44:46;;;;;;;6.53;5.70;;;15.50;99.90;;;;;;5063014;28;37116;-74
2022/06/07 06:47:13;;;;;;;8.05;6.18;;;15.60;99.90;;;;;;5059964;28;39648;-74
2022/06/07 06:49:41;;;;;;;8.65;5.45;;;15.60;99.90;;;;;;5060819;28;39397;-74
2022/06/07 06:52:09;;;;;;;8.80;5.82;;;15.60;99.90;;;;;;5063496;28;39686;-74
2022/06/07 06:54:37;;;;;;;7.05;5.55;;;15.70;99.90;;;;;;5059798;28;38174;-74
2022/06/07 06:57:04;;;;;;;9.55;6.13;;;15.70;99.90;;;;;;5060449;27;39964;-74
2022/06/07 06:59:31;;;;;;;7.60;6.20;;;15.70;99.90;;;;;;5062339;27;39058;-73
2022/06/07 07:01:58;;;;;;;7.20;5.93;;;15.60;99.90;;;;;;5061461;28;38611;-74
2022/06/07 07:04:24;;;;;;;7.85;6.00;;;15.60;99.90;;;;;;5068093;28;38836;-74
2022/06/07 07:06:50;;;;;;;9.95;6.35;;;15.60;99.90;;;;;;5058392;28;38194;-74
2022/06/07 07:09:22;;;;;;;6.68;5.60;;;15.60;99.90;;;;;;5072420;28;39274;-74
2022/06/07 07:11:51;;;;;;;8.65;5.82;;;15.80;99.90;;;;;;5063502;28;38096;-74
2022/06/07 07:14:17;;;;;;;5.50;5.00;;;16.00;99.90;;;;;;5061633;28;38014;-74
2022/06/07 07:16:47;;;;;;;10.02;6.57;;;16.20;99.90;;;;;;5062704;28;38787;-74
2022/06/07 07:19:14;;;;;;;6.22;5.60;;;16.30;99.90;;;;;;5062627;28;39257;-74
2022/06/07 07:21:44;;;;;;;7.25;6.38;;;16.40;99.90;;;;;;5066903;28;38107;-73
2022/06/07 07:24:13;;;;;;;6.70;5.70;;;16.40;99.90;;;;;;5061333;28;37001;-75
2022/06/07 07:26:43;;;;;;;7.70;5.93;;;16.40;99.90;;;;;;5066530;27;39129;-75
2022/06/07 07:29:11;;;;;;;5.95;5.28;;;16.60;99.90;;;;;;5079758;27;38321;-74
2022/06/07 07:31:38;;;;;;;9.32;6.65;;;16.60;99.90;;;;;;5065002;28;38133;-74
2022/06/07 07:34:07;;;;;;;8.80;6.15;;;16.60;99.90;;;;;;5062138;28;38073;-74
2022/06/07 07:36:35;;;;;;;8.57;5.35;;;16.70;99.90;;;;;;5064307;27;40639;-73
2022/06/07 07:39:02;;;;;;;6.75;5.78;;;16.80;99.90;;;;;;5062030;27;38205;-74
2022/06/07 07:41:34;;;;;;;7.43;6.15;;;17.00;99.90;;;;;;5061487;28;38365;-74
2022/06/07 07:44:01;;;;;;;;;;;17.10;99.90;;;;;;5064337;27;36421;-74
2022/06/07 07:46:31;;;;;;;8.45;6.47;;;17.20;99.90;;;;;;5057596;28;47256;-74
2022/06/07 07:48:58;;;;;;;6.90;6.20;;;17.00;99.90;;;;;;5060492;28;39737;-74
2022/06/07 07:51:36;;;;;;;11.07;7.20;;;16.80;99.90;;;;;;5057766;27;38855;-75
2022/06/07 07:54:04;;;;;;;7.32;6.15;;;16.80;99.90;;;;;;5061698;27;37206;-74
2022/06/07 07:56:31;;;;;;;8.43;6.93;;;16.80;99.90;;;;;;5055905;28;37504;-74
2022/06/07 07:58:58;;;;;;;7.65;6.47;;;16.80;99.90;;;;;;5065813;27;39371;-74
2022/06/07 08:01:27;;;;;;;7.38;6.25;;;16.80;99.90;;;;;;5060749;27;39466;-74
2022/06/07 08:03:57;;;;;;;8.88;6.93;;;16.90;99.90;;;;;;5065426;28;38015;-74
2022/06/07 08:06:23;;;;;;;7.40;6.03;;;17.00;99.90;;;;;;5062550;28;40497;-74
2022/06/07 08:08:52;;;;;;;8.75;7.25;;;17.00;99.90;;;;;;5061224;28;39153;-74
2022/06/07 08:11:20;;;;;;;8.98;6.90;;;17.10;99.90;;;;;;5065889;28;38010;-74
2022/06/07 08:13:46;;;;;;;8.48;6.50;;;17.20;99.90;;;;;;5065486;27;37078;-75
2022/06/07 08:16:13;;;;;;;9.07;6.90;;;17.20;99.90;;;;;;5067256;27;39958;-74
2022/06/07 08:18:41;;;;;;;6.80;6.05;;;17.20;99.90;;;;;;5062650;28;40398;-74
2022/06/07 08:21:12;;;;;;;7.32;6.47;;;17.30;99.90;;;;;;5057760;28;38975;-75
2022/06/07 08:23:38;;;;;;;7.63;6.80;;;17.30;99.90;;;;;;5056865;28;38007;-74
2022/06/07 08:26:06;;;;;;;7.47;6.15;;;17.50;99.90;;;;;;5064036;27;40338;-74
2022/06/07 08:28:34;;;;;;;6.45;5.85;;;17.70;99.90;;;;;;5079143;27;38782;-73
2022/06/07 08:31:00;;;;;;;7.03;6.25;;;17.70;99.90;;;;;;5072773;28;36982;-74
2022/06/07 08:39:02;;;;;;;8.20;6.43;;;17.50;99.90;;;;;;5059608;28;39723;-74
2022/06/07 08:41:48;;;;;;;8.63;6.95;;;17.40;99.90;;;;;;5084262;27;49045;-75
2022/06/07 08:44:51;;;;;;;9.52;6.97;;;17.30;99.90;;;;;;5083528;27;37492;-75
2022/06/07 08:47:32;;;;;;;7.05;6.38;;;17.30;99.90;;;;;;5050599;27;40487;-74
2022/06/07 08:50:06;;;;;;;11.80;7.05;;;17.30;99.90;;;;;;5083588;27;39280;-75
2022/06/07 08:52:35;;;;;;;9.80;6.93;;;17.30;99.90;;;;;;5083942;27;47026;-75
2022/06/07 08:55:15;;;;;;;8.63;6.70;;;17.50;99.90;;;;;;5079624;27;37239;-75
2022/06/07 08:57:42;;;;;;;8.68;6.78;;;17.70;99.90;;;;;;5077768;27;39320;-74
2022/06/07 09:00:20;;;;;;;7.50;6.07;;;17.90;99.90;;;;;;5066742;27;39612;-74
2022/06/07 09:02:56;;;;;;;7.70;6.22;;;18.30;99.90;;;;;;5082520;28;39738;-74
2022/06/07 09:05:25;;;;;;;9.70;5.78;;;18.60;99.90;;;;;;5066012;28;37698;-75
2022/06/07 09:07:52;;;;;;;8.57;6.03;;;18.70;99.90;;;;;;5068586;28;39217;-75
2022/06/07 09:13:15;;;;;;;6.13;5.45;;;18.50;99.90;;;;;;5077409;27;39273;-74
2022/06/07 09:15:46;;;;;;;6.30;5.60;;;18.40;99.90;;;;;;5062664;28;37949;-75
2022/06/07 09:18:14;;;;;;;8.50;6.60;;;18.40;99.90;;;;;;5062329;28;38970;-75
2022/06/07 09:20:48;;;;;;;6.00;5.50;;;18.10;99.90;;;;;;5061315;28;39264;-74
2022/06/07 09:23:27;;;;;;;6.55;5.95;;;18.00;99.90;;;;;;5058462;28;39153;-75
2022/06/07 09:25:55;;;;;;;6.97;5.15;;;18.00;99.90;;;;;;5058186;28;38161;-75
2022/06/07 09:28:27;;;;;;;8.98;6.40;;;18.20;99.90;;;;;;5062203;28;40510;-75
2022/06/07 09:31:04;;;;;;;;;;;18.20;99.90;;;;;;5065804;28;40296;-75
2022/06/07 09:33:33;;;;;;;8.60;6.25;;;18.20;99.90;;;;;;5083108;28;47399;-75
2022/06/07 09:36:05;;;;;;;6.80;6.10;;;18.20;99.90;;;;;;5070422;27;38244;-75
2022/06/07 09:38:34;;;;;;;9.57;6.53;;;18.10;99.90;;;;;;5062432;28;47996;-74
2022/06/07 09:41:36;;;;;;;8.95;6.60;;;18.10;99.90;;;;;;5060694;28;39181;-75
2022/06/07 09:44:25;;;;;;;8.40;6.95;;;18.30;99.90;;;;;;5065961;27;48037;-75
2022/06/07 09:47:02;;;;;;;7.90;6.70;;;18.30;99.90;;;;;;5119706;27;47728;-75
2022/06/07 09:49:31;;;;;;;7.72;6.40;;;18.30;99.90;;;;;;5078935;28;47846;-75
2022/06/07 09:52:12;;;;;;;7.88;6.45;;;18.40;99.90;;;;;;5073513;28;39476;-74
2022/06/07 09:54:43;;;;;;;11.93;8.38;;;18.40;99.90;;;;;;5089769;28;47353;-75
2022/06/07 09:57:21;;;;;;;9.77;8.80;;;18.10;99.90;;;;;;5069796;28;38953;-75
2022/06/07 10:00:17;;;;;;;9.40;8.30;;;18.00;99.90;;;;;;5067875;28;39659;-74
2022/06/07 10:02:46;;;;;;;8.98;7.68;;;18.00;99.90;;;;;;5088432;27;47810;-74
2022/06/07 10:05:27;;;;;;;11.25;7.90;;;18.30;99.90;;;;;;5087036;27;38543;-75
2022/06/07 10:08:17;;;;;;;9.15;7.85;;;18.50;99.90;;;;;;5102788;27;37570;-75
2022/06/07 10:10:47;;;;;;;9.15;7.43;;;18.70;99.90;;;;;;5089189;27;48502;-75
2022/06/07 10:13:35;;;;;;;7.22;6.47;;;18.70;99.90;;;;;;5088321;27;38017;-75
2022/06/07 10:16:15;;;;;;;7.70;5.95;;;18.70;99.90;;;;;;5062132;27;38850;-75
2022/06/07 10:18:59;;;;;;;12.70;8.55;;;18.80;99.90;;;;;;5067292;27;36841;-75
2022/06/07 10:21:40;;;;;;;8.75;6.72;;;18.80;99.90;;;;;;5097498;27;39464;-75
2022/06/07 10:24:12;;;;;;;10.88;9.25;;;18.80;99.90;;;;;;5057204;27;38421;-75
2022/06/07 10:27:03;;;;;;;9.02;7.65;;;18.60;99.90;;;;;;5082219;27;36841;-75
2022/06/07 10:29:54;;;;;;;10.85;9.05;;;18.60;99.90;;;;;;5087658;28;47487;-75
2022/06/07 10:32:48;;;;;;;10.20;8.63;;;18.80;99.90;;;;;;5066066;27;39628;-75
2022/06/07 10:35:21;;;;;;;10.48;7.85;;;18.90;99.90;;;;;;5061737;28;39069;-75
2022/06/07 10:38:22;;;;;;;9.90;8.90;;;19.10;99.90;;;;;;5082141;27;40088;-75
2022/06/07 10:41:02;;;;;;;9.70;8.07;;;19.70;99.90;;;;;;5091516;27;47338;-76
2022/06/07 10:43:45;;;;;;;12.68;8.82;;;20.00;99.90;;;;;;5081655;27;48607;-75
2022/06/07 10:46:14;;;;;;;9.35;7.65;;;20.10;99.90;;;;;;5082568;27;39066;-75
2022/06/07 10:49:04;;;;;;;11.38;8.50;;;20.20;99.90;;;;;;5111460;27;38752;-75
2022/06/07 10:54:39;;;;;;;11.13;8.88;;;19.80;99.90;;;;;;5085910;27;40099;-74
2022/06/07 10:57:34;;;;;;;10.93;9.07;;;19.30;99.90;;;;;;5071348;27;38309;-75
2022/06/07 11:00:34;;;;;;;7.85;7.10;;;19.00;99.90;;;;;;5068828;27;38347;-74
2022/06/07 11:03:14;;;;;;;11.10;8.43;;;19.20;99.90;;;;;;5081571;28;47783;-75
2022/06/07 11:11:33;;;;;;;10.10;9.05;;;19.10;99.90;;;;;;5080722;27;49372;-74
2022/06/07 11:14:14;;;;;;;10.82;8.40;;;18.90;99.90;;;;;;5081658;27;39667;-75
2022/06/07 11:17:15;;;;;;;13.32;9.52;;;18.90;99.90;;;;;;5080414;28;47701;-74
2022/06/07 11:19:41;;;;;;;12.50;9.38;;;18.60;99.90;;;;;;5094472;27;47015;-75
2022/06/07 11:22:16;;;;;;;10.80;9.68;;;18.40;99.90;;;;;;5080435;27;38234;-73
2022/06/07 11:25:15;;;;;;;12.73;10.32;;;18.40;99.90;;;;;;5073518;27;38150;-73
2022/06/07 11:27:53;;;;;;;11.93;8.70;;;18.60;99.90;;;;;;5061681;27;45544;-73
2022/06/07 11:30:27;;;;;;;11.00;9.73;;;19.40;99.90;;;;;;5058892;28;39982;-73
2022/06/07 11:32:58;;;;;;;9.25;7.65;;;20.20;99.90;;;;;;5053610;28;38528;-73
2022/06/07 11:35:45;;;;;;;15.23;8.93;;;20.20;99.90;;;;;;5060491;28;37942;-73
2022/06/07 11:38:17;;;;;;;8.80;7.78;;;20.70;99.90;;;;;;5058703;27;40070;-74
2022/06/07 11:40:45;;;;;;;9.00;8.10;;;20.80;99.90;;;;;;5062469;28;39156;-73
2022/06/07 11:44:02;;;;;;;9.48;7.43;;;20.70;99.90;;;;;;5063398;27;37777;-73
2022/06/07 11:46:50;;;;;;;9.57;8.60;;;20.40;99.90;;;;;;5038989;28;49891;-73
2022/06/07 11:50:02;;;;;;;10.43;7.38;;;20.50;99.90;;;;;;5081974;27;38661;-73
2022/06/07 11:52:33;;;;;;;13.15;6.10;;;21.10;99.90;;;;;;5072101;27;46151;-74
2022/06/07 11:55:21;;;;;;;7.90;5.97;;;21.40;99.90;;;;;;5079758;28;38716;-74
2022/06/07 11:57:56;;;;;;;7.38;6.65;;;21.70;99.90;;;;;;5071407;27;49015;-75
2022/06/07 12:00:23;;;;;;;9.10;5.90;;;22.10;99.90;;;;;;5094238;27;38249;-77
2022/06/07 12:03:00;;;;;;;9.80;6.65;;;22.20;99.90;;;;;;5083514;27;38574;-74
2022/06/07 12:05:49;;;;;;;8.52;5.32;;;22.20;99.90;;;;;;5063391;28;38836;-73
2022/06/07 12:08:43;;;;;;;6.70;5.03;;;22.20;99.90;;;;;;5077176;27;38566;-74
2022/06/07 12:11:22;;;;;;;9.07;5.50;;;21.90;99.90;;;;;;5076988;28;39395;-74
2022/06/07 12:13:57;;;;;;;6.95;5.60;;;21.80;99.90;;;;;;5075640;27;39307;-74
2022/06/07 12:16:35;;;;;;;6.47;5.20;;;21.60;99.90;;;;;;5096339;27;38840;-74
2022/06/07 12:19:06;;;;;;;5.60;5.00;;;21.40;99.90;;;;;;5087009;27;36306;-74
2022/06/07 12:21:41;;;;;;;10.50;5.53;;;21.80;99.90;;;;;;5084491;27;41101;-74
2022/06/07 12:24:15;;;;;;;6.32;5.63;;;21.50;99.90;;;;;;5076101;27;37850;-74
2022/06/07 12:26:45;;;;;;;8.35;4.88;;;21.40;99.90;;;;;;5068999;27;39015;-75
2022/06/07 12:29:24;;;;;;;7.60;5.28;;;21.40;99.90;;;;;;5053250;27;37540;-75
2022/06/07 12:32:01;;;;;;;8.73;4.80;;;20.90;99.90;;;;;;5063884;28;40263;-74
2022/06/07 12:34:37;;;;;;;7.50;6.05;;;21.00;99.90;;;;;;5072497;28;47042;-74
2022/06/07 12:37:20;;;;;;;6.70;5.60;;;21.30;99.90;;;;;;5053986;28;38773;-74
2022/06/07 12:39:51;;;;;;;6.55;4.97;;;21.20;99.90;;;;;;5059064;28;37942;-75
2022/06/07 12:42:19;;;;;;;10.27;6.18;;;21.30;99.90;;;;;;5057466;27;40754;-74
2022/06/07 12:44:57;;;;;;;7.22;5.85;;;21.50;99.90;;;;;;5053636;28;39744;-74
2022/06/07 12:47:31;;;;;;;6.38;4.75;;;21.40;99.90;;;;;;5067037;27;38556;-74
2022/06/07 12:49:57;;;;;;;9.35;6.00;;;21.60;99.90;;;;;;5077321;27;36971;-75
2022/06/07 12:52:27;;;;;;;8.45;5.82;;;21.60;99.90;;;;;;5061723;27;39478;-74
2022/06/07 12:54:56;;;;;;;7.25;5.63;;;21.60;99.90;;;;;;5060064;28;39613;-74
2022/06/07 12:57:27;;;;;;;7.40;5.72;;;21.50;99.90;;;;;;5058684;28;38667;-74
2022/06/07 13:00:00;;;;;;;6.68;5.60;;;21.40;99.90;;;;;;5058704;28;37491;-73
2022/06/07 13:02:40;;;;;;;8.82;5.30;;;21.00;99.90;;;;;;5075064;27;39195;-74
2022/06/07 13:05:10;;;;;;;6.93;4.97;;;20.70;99.90;;;;;;5069185;27;38862;-74
2022/06/07 13:07:47;;;;;;;7.00;4.78;;;21.40;99.90;;;;;;5066475;27;38290;-74
2022/06/07 13:10:17;;;;;;;6.80;4.22;;;21.50;99.90;;;;;;5058047;27;37975;-75
2022/06/07 13:12:49;;;;;;;5.57;3.80;;;21.90;99.90;;;;;;5054309;28;39766;-73
2022/06/07 13:15:25;;;;;;;10.80;4.97;;;22.00;99.90;;;;;;5082109;27;40205;-74
2022/06/07 13:17:56;;;;;;;10.50;5.30;;;22.30;99.90;;;;;;5069943;28;39017;-74
2022/06/07 13:20:42;;;;;;;7.47;5.18;;;22.10;99.90;;;;;;5071388;27;37030;-76
2022/06/07 13:23:32;;;;;;;8.95;6.00;;;21.40;99.90;;;;;;5079233;27;40287;-75
2022/06/07 13:26:20;;;;;;;6.40;4.93;;;21.00;99.90;;;;;;5062222;27;39288;-75
2022/06/07 13:28:55;;;;;;;8.82;5.18;;;21.20;99.90;;;;;;5070898;28;46964;-75
2022/06/07 13:31:25;;;;;;;6.45;4.18;;;21.50;99.90;;;;;;5106034;27;37485;-75
2022/06/07 13:34:01;;;;;;;11.93;5.05;;;21.80;99.90;;;;;;5075224;27;39107;-74
2022/06/07 13:36:58;;;;;;;5.35;4.30;;;22.10;99.90;;;;;;5080414;28;47347;-74